Airfield :
LOGIN :

Register | Disclaimer

   EN    FR    IT 

 










Legend :    VFR   Marginal VFR   IFR   Intensive IFR   Very Intensive IFR
Visi :
Ceiling :
>= 8 km
>= 3000ft
5 to 8 km
1000 to 3000 ft
1500m to 5 km
500 to 1000 ft
800 to 1500m
200 to 500 ft
< 800m
< 200 ft
Symbols :   Thunderstorms  Fog  Heavy snow  Heavy precipitations  Wind > 20 kt
SIGMETs :     Misc.  Thunderstorms  Icing  Turbulence  Mountain Waves  Volcanic Ashes






- Airport Elevation : 49 ft
- IATA code : SEN


EGMC - Southend

CURRENT METAR :
  • 022020Z 07007KT CAVOK 14/12 Q1014

EXPIRED METARs :
  • 021950Z 08008KT CAVOK 16/13 Q1014
  • 021920Z 05009KT 340V090 CAVOK 18/14 Q1014
  • 021850Z 33007KT CAVOK 21/09 Q1014
  • 021820Z 33007KT CAVOK 22/08 Q1014
  • 021750Z 32006KT 290V010 CAVOK 23/08 Q1014

TAF TAF EGMC
Valid from the 02 at 21:00 until the 03 at 06:00 UTC


021957Z 0221/0306 VRB04KT CAVOK



MET'MAP, your aeronautical weather chart ! - Copyright ORBIFLY December 2007 - Disclaimer

ORBIFLY MET'MAP TEAM :

Programming & Development : Alexandra Zaïnal
Concept & original design : Baudouin d'Aumeries
Assistance for programming : Marc-Olivier Méhu
Technical & hardware support : Manuel Goepfert

Contact : metmap@orbifly.com




SOURCES & CREDITS :

   NOAA